sensor_id;sensor_type;location;lat;lon;timestamp;temperature;humidity
17148;DHT22;8689;47.364;8.796;2023-09-19T04:57:07;15.00;99.90
17148;DHT22;8689;47.364;8.796;2023-09-19T04:59:55;15.00;99.90
17148;DHT22;8689;47.364;8.796;2023-09-19T05:06:13;15.10;99.90
17148;DHT22;8689;47.364;8.796;2023-09-19T05:38:11;15.30;99.90
17148;DHT22;8689;47.364;8.796;2023-09-19T05:40:39;15.30;99.90
17148;DHT22;8689;47.364;8.796;2023-09-19T05:43:08;15.30;99.90
17148;DHT22;8689;47.364;8.796;2023-09-19T05:45:44;15.20;99.90
17148;DHT22;8689;47.364;8.796;2023-09-19T05:48:27;15.10;99.90
17148;DHT22;8689;47.364;8.796;2023-09-19T05:51:09;15.00;99.90
17148;DHT22;8689;47.364;8.796;2023-09-19T05:53:39;14.90;99.90
17148;DHT22;8689;47.364;8.796;2023-09-19T05:56:09;14.80;99.90
17148;DHT22;8689;47.364;8.796;2023-09-19T05:58:37;14.70;99.90
17148;DHT22;8689;47.364;8.796;2023-09-19T06:01:05;14.60;99.90
17148;DHT22;8689;47.364;8.796;2023-09-19T06:03:34;14.60;99.90
17148;DHT22;8689;47.364;8.796;2023-09-19T06:06:01;14.60;99.90
17148;DHT22;8689;47.364;8.796;2023-09-19T06:08:32;14.60;99.90
17148;DHT22;8689;47.364;8.796;2023-09-19T06:11:16;14.60;99.90
17148;DHT22;8689;47.364;8.796;2023-09-19T06:13:46;14.70;99.90
17148;DHT22;8689;47.364;8.796;2023-09-19T06:16:26;14.80;99.90
17148;DHT22;8689;47.364;8.796;2023-09-19T06:18:54;14.80;99.90
17148;DHT22;8689;47.364;8.796;2023-09-19T06:21:22;14.90;99.90
17148;DHT22;8689;47.364;8.796;2023-09-19T06:23:52;15.00;99.90
17148;DHT22;8689;47.364;8.796;2023-09-19T06:26:36;15.00;99.90
17148;DHT22;8689;47.364;8.796;2023-09-19T06:29:05;15.20;99.90
17148;DHT22;8689;47.364;8.796;2023-09-19T06:31:34;15.20;99.90
17148;DHT22;8689;47.364;8.796;2023-09-19T06:34:16;15.30;99.90
17148;DHT22;8689;47.364;8.796;2023-09-19T06:36:44;15.20;99.90
17148;DHT22;8689;47.364;8.796;2023-09-19T06:39:12;15.20;99.90
17148;DHT22;8689;47.364;8.796;2023-09-19T06:41:43;15.20;99.90
17148;DHT22;8689;47.364;8.796;2023-09-19T06:44:12;15.20;99.90
17148;DHT22;8689;47.364;8.796;2023-09-19T06:46:41;15.20;99.90
17148;DHT22;8689;47.364;8.796;2023-09-19T06:49:12;15.20;99.90
17148;DHT22;8689;47.364;8.796;2023-09-19T06:51:41;15.30;99.90
17148;DHT22;8689;47.364;8.796;2023-09-19T06:54:10;15.40;99.90
17148;DHT22;8689;47.364;8.796;2023-09-19T06:56:38;15.50;99.90
17148;DHT22;8689;47.364;8.796;2023-09-19T06:59:09;15.60;99.90
17148;DHT22;8689;47.364;8.796;2023-09-19T07:01:52;15.70;99.90
17148;DHT22;8689;47.364;8.796;2023-09-19T07:04:20;15.80;99.90
17148;DHT22;8689;47.364;8.796;2023-09-19T07:06:49;15.90;99.90
17148;DHT22;8689;47.364;8.796;2023-09-19T07:09:17;15.90;99.90
17148;DHT22;8689;47.364;8.796;2023-09-19T07:11:48;15.90;99.90
17148;DHT22;8689;47.364;8.796;2023-09-19T07:14:20;15.80;99.90
17148;DHT22;8689;47.364;8.796;2023-09-19T07:16:47;15.80;99.90
17148;DHT22;8689;47.364;8.796;2023-09-19T07:19:16;15.80;99.90
17148;DHT22;8689;47.364;8.796;2023-09-19T07:21:43;15.80;99.90
17148;DHT22;8689;47.364;8.796;2023-09-19T07:24:13;15.80;99.90
17148;DHT22;8689;47.364;8.796;2023-09-19T07:26:41;15.80;99.90
17148;DHT22;8689;47.364;8.796;2023-09-19T07:29:09;15.90;99.90
17148;DHT22;8689;47.364;8.796;2023-09-19T07:31:38;15.90;99.90
17148;DHT22;8689;47.364;8.796;2023-09-19T07:34:06;16.00;99.90
17148;DHT22;8689;47.364;8.796;2023-09-19T07:36:45;16.10;99.90
17148;DHT22;8689;47.364;8.796;2023-09-19T07:39:23;16.20;99.90
17148;DHT22;8689;47.364;8.796;2023-09-19T07:41:52;16.40;99.90
17148;DHT22;8689;47.364;8.796;2023-09-19T07:44:20;16.50;99.90
17148;DHT22;8689;47.364;8.796;2023-09-19T07:46:49;16.50;99.90
17148;DHT22;8689;47.364;8.796;2023-09-19T07:49:46;16.50;99.90
17148;DHT22;8689;47.364;8.796;2023-09-19T07:52:21;16.60;99.90
17148;DHT22;8689;47.364;8.796;2023-09-19T07:55:04;16.60;99.90
17148;DHT22;8689;47.364;8.796;2023-09-19T07:57:34;16.70;99.90
17148;DHT22;8689;47.364;8.796;2023-09-19T08:00:05;16.60;99.90
17148;DHT22;8689;47.364;8.796;2023-09-19T08:02:39;16.70;99.90
17148;DHT22;8689;47.364;8.796;2023-09-19T08:05:08;16.70;99.90
17148;DHT22;8689;47.364;8.796;2023-09-19T08:07:37;16.70;99.90
17148;DHT22;8689;47.364;8.796;2023-09-19T08:10:06;16.80;99.90
17148;DHT22;8689;47.364;8.796;2023-09-19T08:12:39;16.70;99.90
17148;DHT22;8689;47.364;8.796;2023-09-19T08:15:12;16.70;99.90
17148;DHT22;8689;47.364;8.796;2023-09-19T08:17:42;16.70;99.90
17148;DHT22;8689;47.364;8.796;2023-09-19T08:20:11;16.60;99.90
17148;DHT22;8689;47.364;8.796;2023-09-19T08:22:46;16.50;99.90
17148;DHT22;8689;47.364;8.796;2023-09-19T08:25:24;16.40;99.90
17148;DHT22;8689;47.364;8.796;2023-09-19T08:27:53;16.50;99.90
17148;DHT22;8689;47.364;8.796;2023-09-19T08:30:35;16.50;99.90
17148;DHT22;8689;47.364;8.796;2023-09-19T08:33:08;16.50;99.90
17148;DHT22;8689;47.364;8.796;2023-09-19T08:35:36;16.50;99.90
17148;DHT22;8689;47.364;8.796;2023-09-19T08:38:07;16.50;99.90
17148;DHT22;8689;47.364;8.796;2023-09-19T08:40:37;16.50;99.90
17148;DHT22;8689;47.364;8.796;2023-09-19T08:43:08;16.40;99.90
17148;DHT22;8689;47.364;8.796;2023-09-19T08:45:36;16.40;99.90
17148;DHT22;8689;47.364;8.796;2023-09-19T08:48:31;16.40;99.90
17148;DHT22;8689;47.364;8.796;2023-09-19T08:51:18;16.40;99.90
17148;DHT22;8689;47.364;8.796;2023-09-19T08:54:06;16.30;99.90
17148;DHT22;8689;47.364;8.796;2023-09-19T08:56:36;16.30;99.90
17148;DHT22;8689;47.364;8.796;2023-09-19T08:59:06;16.30;99.90
17148;DHT22;8689;47.364;8.796;2023-09-19T09:01:36;16.40;99.90
17148;DHT22;8689;47.364;8.796;2023-09-19T09:04:09;16.40;99.90
17148;DHT22;8689;47.364;8.796;2023-09-19T09:06:39;16.30;99.90
17148;DHT22;8689;47.364;8.796;2023-09-19T09:09:11;16.30;99.90
17148;DHT22;8689;47.364;8.796;2023-09-19T09:11:54;16.10;99.90
17148;DHT22;8689;47.364;8.796;2023-09-19T09:14:22;16.10;99.90
17148;DHT22;8689;47.364;8.796;2023-09-19T09:17:05;16.10;99.90
17148;DHT22;8689;47.364;8.796;2023-09-19T09:19:36;16.20;99.90
17148;DHT22;8689;47.364;8.796;2023-09-19T09:22:08;16.30;99.90
17148;DHT22;8689;47.364;8.796;2023-09-19T09:24:50;16.40;99.90
17148;DHT22;8689;47.364;8.796;2023-09-19T09:27:20;16.50;99.90
17148;DHT22;8689;47.364;8.796;2023-09-19T09:29:50;16.60;99.90
17148;DHT22;8689;47.364;8.796;2023-09-19T09:32:22;16.60;99.90
17148;DHT22;8689;47.364;8.796;2023-09-19T09:34:52;16.60;99.90
17148;DHT22;8689;47.364;8.796;2023-09-19T09:37:21;16.60;99.90
17148;DHT22;8689;47.364;8.796;2023-09-19T09:39:51;16.60;99.90
17148;DHT22;8689;47.364;8.796;2023-09-19T09:42:32;16.60;99.90
17148;DHT22;8689;47.364;8.796;2023-09-19T09:45:17;16.70;99.90
17148;DHT22;8689;47.364;8.796;2023-09-19T09:47:46;16.80;99.90
17148;DHT22;8689;47.364;8.796;2023-09-19T09:50:31;16.80;99.90
17148;DHT22;8689;47.364;8.796;2023-09-19T09:53:22;16.90;99.90
17148;DHT22;8689;47.364;8.796;2023-09-19T09:56:01;17.00;99.90
17148;DHT22;8689;47.364;8.796;2023-09-19T09:58:31;17.10;99.90
17148;DHT22;8689;47.364;8.796;2023-09-19T10:01:00;17.10;99.90
17148;DHT22;8689;47.364;8.796;2023-09-19T10:03:35;17.30;99.90
17148;DHT22;8689;47.364;8.796;2023-09-19T10:06:11;17.40;99.90
17148;DHT22;8689;47.364;8.796;2023-09-19T10:09:03;17.50;99.90
17148;DHT22;8689;47.364;8.796;2023-09-19T10:12:16;17.80;99.90
17148;DHT22;8689;47.364;8.796;2023-09-19T10:18:54;18.20;99.90
17148;DHT22;8689;47.364;8.796;2023-09-19T10:25:37;18.80;99.90
17148;DHT22;8689;47.364;8.796;2023-09-19T10:32:12;20.30;99.90
17148;DHT22;8689;47.364;8.796;2023-09-19T10:38:32;21.00;99.90
17148;DHT22;8689;47.364;8.796;2023-09-19T10:44:51;21.80;97.10
17148;DHT22;8689;47.364;8.796;2023-09-19T10:50:57;21.20;96.20
17148;DHT22;8689;47.364;8.796;2023-09-19T11:46:10;21.80;95.40
17148;DHT22;8689;47.364;8.796;2023-09-19T12:00:07;23.30;91.20
17148;DHT22;8689;47.364;8.796;2023-09-19T12:02:59;24.20;90.40
17148;DHT22;8689;47.364;8.796;2023-09-19T12:55:25;25.90;67.90
17148;DHT22;8689;47.364;8.796;2023-09-19T12:57:59;25.70;69.40
17148;DHT22;8689;47.364;8.796;2023-09-19T13:00:37;26.10;66.90
17148;DHT22;8689;47.364;8.796;2023-09-19T13:03:17;26.60;63.90
17148;DHT22;8689;47.364;8.796;2023-09-19T13:05:52;27.00;62.70
17148;DHT22;8689;47.364;8.796;2023-09-19T13:08:26;27.50;59.60
17148;DHT22;8689;47.364;8.796;2023-09-19T13:11:35;27.30;60.00
17148;DHT22;8689;47.364;8.796;2023-09-19T13:14:19;27.10;61.60
17148;DHT22;8689;47.364;8.796;2023-09-19T13:16:55;27.40;60.90
17148;DHT22;8689;47.364;8.796;2023-09-19T13:19:40;27.30;62.30
17148;DHT22;8689;47.364;8.796;2023-09-19T13:22:36;27.50;60.90
17148;DHT22;8689;47.364;8.796;2023-09-19T13:25:06;27.40;62.10
17148;DHT22;8689;47.364;8.796;2023-09-19T13:27:35;27.70;60.10
17148;DHT22;8689;47.364;8.796;2023-09-19T13:30:03;27.90;60.40
17148;DHT22;8689;47.364;8.796;2023-09-19T13:32:32;28.20;57.90
17148;DHT22;8689;47.364;8.796;2023-09-19T13:35:00;28.20;57.90
17148;DHT22;8689;47.364;8.796;2023-09-19T13:37:27;28.00;58.60
17148;DHT22;8689;47.364;8.796;2023-09-19T13:39:55;28.00;57.80
17148;DHT22;8689;47.364;8.796;2023-09-19T13:42:24;27.60;57.60
17148;DHT22;8689;47.364;8.796;2023-09-19T13:44:57;27.50;57.50
17148;DHT22;8689;47.364;8.796;2023-09-19T13:47:25;27.10;60.30
17148;DHT22;8689;47.364;8.796;2023-09-19T13:49:57;26.90;60.50
17148;DHT22;8689;47.364;8.796;2023-09-19T13:52:24;26.30;61.00
17148;DHT22;8689;47.364;8.796;2023-09-19T13:57:46;26.30;62.10
17148;DHT22;8689;47.364;8.796;2023-09-19T14:00:17;26.10;62.00
17148;DHT22;8689;47.364;8.796;2023-09-19T14:02:54;26.00;62.30
17148;DHT22;8689;47.364;8.796;2023-09-19T14:05:26;25.50;65.50
17148;DHT22;8689;47.364;8.796;2023-09-19T14:07:57;25.20;66.30
17148;DHT22;8689;47.364;8.796;2023-09-19T14:10:24;24.90;67.30
17148;DHT22;8689;47.364;8.796;2023-09-19T14:12:53;24.60;66.50
17148;DHT22;8689;47.364;8.796;2023-09-19T14:15:21;24.40;68.50
17148;DHT22;8689;47.364;8.796;2023-09-19T14:18:00;24.20;68.20
17148;DHT22;8689;47.364;8.796;2023-09-19T14:20:27;24.00;69.20
17148;DHT22;8689;47.364;8.796;2023-09-19T14:22:56;23.70;70.60
17148;DHT22;8689;47.364;8.796;2023-09-19T14:25:23;23.50;70.90
17148;DHT22;8689;47.364;8.796;2023-09-19T14:27:51;23.50;71.10
17148;DHT22;8689;47.364;8.796;2023-09-19T14:30:18;23.50;71.90
17148;DHT22;8689;47.364;8.796;2023-09-19T14:32:46;23.60;71.10
17148;DHT22;8689;47.364;8.796;2023-09-19T14:35:16;23.50;69.40
17148;DHT22;8689;47.364;8.796;2023-09-19T14:37:43;23.50;71.40
17148;DHT22;8689;47.364;8.796;2023-09-19T14:40:11;23.40;72.00
17148;DHT22;8689;47.364;8.796;2023-09-19T14:42:41;23.20;70.80
17148;DHT22;8689;47.364;8.796;2023-09-19T14:45:10;23.00;71.80
17148;DHT22;8689;47.364;8.796;2023-09-19T14:47:40;22.70;72.70
17148;DHT22;8689;47.364;8.796;2023-09-19T14:50:10;22.60;73.50
17148;DHT22;8689;47.364;8.796;2023-09-19T14:52:38;22.50;75.60
17148;DHT22;8689;47.364;8.796;2023-09-19T14:55:07;22.30;74.50
17148;DHT22;8689;47.364;8.796;2023-09-19T14:57:41;22.20;74.30
17148;DHT22;8689;47.364;8.796;2023-09-19T15:00:12;22.10;76.80
17148;DHT22;8689;47.364;8.796;2023-09-19T15:02:40;22.10;77.70
17148;DHT22;8689;47.364;8.796;2023-09-19T15:05:09;22.00;77.20
17148;DHT22;8689;47.364;8.796;2023-09-19T15:07:37;22.00;78.00
17148;DHT22;8689;47.364;8.796;2023-09-19T15:10:06;22.00;78.20
17148;DHT22;8689;47.364;8.796;2023-09-19T15:12:37;21.90;79.20
17148;DHT22;8689;47.364;8.796;2023-09-19T15:15:07;21.80;76.70
17148;DHT22;8689;47.364;8.796;2023-09-19T15:17:35;21.80;75.60
17148;DHT22;8689;47.364;8.796;2023-09-19T15:20:03;21.70;75.60
17148;DHT22;8689;47.364;8.796;2023-09-19T15:22:33;21.70;79.00
17148;DHT22;8689;47.364;8.796;2023-09-19T15:25:02;21.60;78.20
17148;DHT22;8689;47.364;8.796;2023-09-19T15:27:29;21.60;77.50
17148;DHT22;8689;47.364;8.796;2023-09-19T15:29:58;21.60;76.20
17148;DHT22;8689;47.364;8.796;2023-09-19T15:32:26;21.70;76.30
17148;DHT22;8689;47.364;8.796;2023-09-19T15:34:53;21.70;78.10
17148;DHT22;8689;47.364;8.796;2023-09-19T15:37:20;21.70;78.60
17148;DHT22;8689;47.364;8.796;2023-09-19T15:39:49;21.70;77.40
17148;DHT22;8689;47.364;8.796;2023-09-19T15:42:18;21.70;77.40
17148;DHT22;8689;47.364;8.796;2023-09-19T15:44:45;21.60;76.20
17148;DHT22;8689;47.364;8.796;2023-09-19T15:47:15;21.60;77.20
17148;DHT22;8689;47.364;8.796;2023-09-19T15:49:42;21.60;78.60
17148;DHT22;8689;47.364;8.796;2023-09-19T15:52:33;21.50;77.40
17148;DHT22;8689;47.364;8.796;2023-09-19T16:02:21;21.40;80.50
17148;DHT22;8689;47.364;8.796;2023-09-19T16:04:49;21.40;82.60
17148;DHT22;8689;47.364;8.796;2023-09-19T16:07:16;21.40;81.00
17148;DHT22;8689;47.364;8.796;2023-09-19T16:09:44;21.40;81.40
17148;DHT22;8689;47.364;8.796;2023-09-19T16:12:12;21.30;81.40
17148;DHT22;8689;47.364;8.796;2023-09-19T16:14:40;21.30;79.70
17148;DHT22;8689;47.364;8.796;2023-09-19T16:17:07;21.20;81.50
17148;DHT22;8689;47.364;8.796;2023-09-19T16:19:35;21.10;82.40
17148;DHT22;8689;47.364;8.796;2023-09-19T16:22:03;21.10;83.00
17148;DHT22;8689;47.364;8.796;2023-09-19T16:24:30;21.00;82.70
17148;DHT22;8689;47.364;8.796;2023-09-19T16:26:57;20.90;83.50
17148;DHT22;8689;47.364;8.796;2023-09-19T16:29:25;20.90;84.60
17148;DHT22;8689;47.364;8.796;2023-09-19T16:31:52;20.90;82.00
17148;DHT22;8689;47.364;8.796;2023-09-19T16:34:20;20.80;83.30
17148;DHT22;8689;47.364;8.796;2023-09-19T16:36:48;20.80;83.70
17148;DHT22;8689;47.364;8.796;2023-09-19T16:39:15;20.70;84.30
17148;DHT22;8689;47.364;8.796;2023-09-19T16:41:44;20.60;85.80
17148;DHT22;8689;47.364;8.796;2023-09-19T16:44:11;20.50;86.30
17148;DHT22;8689;47.364;8.796;2023-09-19T16:46:38;20.40;86.80
17148;DHT22;8689;47.364;8.796;2023-09-19T16:49:07;20.30;87.90
17148;DHT22;8689;47.364;8.796;2023-09-19T16:51:34;20.20;88.60
17148;DHT22;8689;47.364;8.796;2023-09-19T16:54:05;20.10;88.80
17148;DHT22;8689;47.364;8.796;2023-09-19T16:56:32;20.00;89.40
17148;DHT22;8689;47.364;8.796;2023-09-19T16:59:02;19.90;89.70
17148;DHT22;8689;47.364;8.796;2023-09-19T17:01:31;19.80;89.80
17148;DHT22;8689;47.364;8.796;2023-09-19T17:03:58;19.80;90.20
17148;DHT22;8689;47.364;8.796;2023-09-19T17:06:26;19.60;90.40
17148;DHT22;8689;47.364;8.796;2023-09-19T17:08:54;19.50;90.70
17148;DHT22;8689;47.364;8.796;2023-09-19T17:11:23;19.40;91.30
17148;DHT22;8689;47.364;8.796;2023-09-19T17:13:51;19.30;91.70
17148;DHT22;8689;47.364;8.796;2023-09-19T17:16:19;19.20;91.90
17148;DHT22;8689;47.364;8.796;2023-09-19T17:18:50;19.10;92.10
17148;DHT22;8689;47.364;8.796;2023-09-19T17:21:17;19.00;92.50
17148;DHT22;8689;47.364;8.796;2023-09-19T17:23:45;18.80;93.30
17148;DHT22;8689;47.364;8.796;2023-09-19T17:26:13;18.70;93.70
17148;DHT22;8689;47.364;8.796;2023-09-19T17:28:44;18.50;94.40
17148;DHT22;8689;47.364;8.796;2023-09-19T17:31:13;18.30;95.50
17148;DHT22;8689;47.364;8.796;2023-09-19T17:33:41;18.10;97.10
17148;DHT22;8689;47.364;8.796;2023-09-19T17:36:10;17.90;98.20
17148;DHT22;8689;47.364;8.796;2023-09-19T17:38:39;17.60;99.30
17148;DHT22;8689;47.364;8.796;2023-09-19T17:41:07;17.40;99.90
17148;DHT22;8689;47.364;8.796;2023-09-19T17:43:35;17.30;99.90
